Aviation Digital Data Service (ADDS)

Output produced by METARs form (1526 UTC 27 July 2016)
found at http://aviationweather.gov/adds/metars/
 
KPQI 271431Z 2715/2812 24005KT P6SM SCT025 
     FM272100 22005KT P6SM VCTS BKN050CB 
     FM280000 20004KT 6SM BR BKN250 
     FM280900 VRB03KT 3SM BR BKN250